createdAt,value
2019-01-09T00:01:10.244Z,32.04
2019-01-09T00:03:39.943Z,31.98
2019-01-09T00:06:09.546Z,31.91
2019-01-09T00:08:39.143Z,31.83
2019-01-09T00:11:08.878Z,31.76
2019-01-09T00:13:38.675Z,31.70
2019-01-09T00:16:08.289Z,31.69
2019-01-09T00:18:37.751Z,31.57
2019-01-09T00:21:07.424Z,31.60
2019-01-09T00:23:37.120Z,31.57
2019-01-09T00:26:06.822Z,31.48
2019-01-09T00:28:36.533Z,31.53
2019-01-09T00:31:06.157Z,31.50
2019-01-09T00:33:35.741Z,31.48
2019-01-09T00:36:05.290Z,31.45
2019-01-09T00:38:34.962Z,31.33
2019-01-09T00:41:04.571Z,31.38
2019-01-09T00:43:34.278Z,31.36
2019-01-09T00:46:03.922Z,31.36
2019-01-09T00:48:33.602Z,31.34
2019-01-09T00:51:03.110Z,31.35
2019-01-09T00:53:32.824Z,31.32
2019-01-09T00:56:02.431Z,31.28
2019-01-09T00:58:31.969Z,31.32
2019-01-09T01:01:01.658Z,31.30
2019-01-09T01:04:39.969Z,31.29
2019-01-09T01:07:54.546Z,31.17
2019-01-09T01:11:07.968Z,31.31
2019-01-09T01:14:09.728Z,31.22
2019-01-09T01:17:15.068Z,31.18
2019-01-09T01:20:09.736Z,31.18
2019-01-09T01:23:22.171Z,31.09
2019-01-09T01:26:32.530Z,30.95
2019-01-09T01:29:42.495Z,30.98
2019-01-09T01:32:41.452Z,30.92
2019-01-09T01:36:09.986Z,30.99
2019-01-09T01:39:04.730Z,31.02
2019-01-09T01:41:47.922Z,30.91
2019-01-09T01:44:52.796Z,30.84
2019-01-09T01:48:01.473Z,30.83
2019-01-09T01:51:29.904Z,30.83
2019-01-09T01:54:07.246Z,30.79
2019-01-09T01:57:42.085Z,30.79
2019-01-09T02:00:48.871Z,30.78
2019-01-09T02:03:56.438Z,30.79
2019-01-09T02:07:02.638Z,30.73
2019-01-09T02:10:15.508Z,30.78
2019-01-09T02:13:31.760Z,30.69
2019-01-09T02:16:28.050Z,30.71
2019-01-09T02:19:25.283Z,30.70
2019-01-09T02:22:29.815Z,30.67
2019-01-09T02:25:25.183Z,30.61
2019-01-09T02:28:36.129Z,30.60
2019-01-09T02:31:51.046Z,30.66
2019-01-09T02:34:20.627Z,30.68
2019-01-09T02:36:50.138Z,30.61
2019-01-09T02:39:19.855Z,30.70
2019-01-09T02:41:49.474Z,30.69
2019-01-09T02:44:19.080Z,30.71
2019-01-09T02:46:48.747Z,30.61
2019-01-09T02:49:18.298Z,30.64
2019-01-09T02:51:47.907Z,30.68
2019-01-09T02:54:17.673Z,30.76
2019-01-09T02:56:47.336Z,30.73
2019-01-09T02:59:17.134Z,30.71
2019-01-09T03:01:46.877Z,30.68
2019-01-09T03:04:16.454Z,30.73
2019-01-09T03:06:46.067Z,30.77
2019-01-09T03:09:15.830Z,30.68
2019-01-09T03:11:45.423Z,30.57
2019-01-09T03:14:15.092Z,30.69
2019-01-09T03:16:44.665Z,30.75
2019-01-09T03:19:14.323Z,30.76
2019-01-09T03:21:43.964Z,30.69
2019-01-09T03:24:13.643Z,30.76
2019-01-09T03:26:43.419Z,30.67
2019-01-09T03:29:12.236Z,30.54
2019-01-09T03:31:41.799Z,30.61
2019-01-09T03:34:11.474Z,30.60
2019-01-09T03:36:41.096Z,30.55
2019-01-09T03:39:10.683Z,30.54
2019-01-09T03:41:40.383Z,30.47
2019-01-09T03:44:09.934Z,30.45
2019-01-09T03:46:39.607Z,30.46
2019-01-09T03:49:09.216Z,30.48
2019-01-09T03:51:38.929Z,30.45
2019-01-09T03:54:08.668Z,30.48
2019-01-09T03:56:38.338Z,30.46
2019-01-09T03:59:08.090Z,30.36
2019-01-09T04:01:37.624Z,30.46
2019-01-09T04:04:07.379Z,30.42
2019-01-09T04:06:41.846Z,30.38
2019-01-09T04:09:08.328Z,30.38
2019-01-09T04:11:38.013Z,30.44
2019-01-09T04:14:07.581Z,30.59
2019-01-09T04:16:37.260Z,30.51
2019-01-09T04:19:06.833Z,30.53
2019-01-09T04:21:36.578Z,30.50
2019-01-09T04:24:06.313Z,30.37
2019-01-09T04:26:35.894Z,30.33
2019-01-09T04:29:05.622Z,30.39
2019-01-09T04:31:35.327Z,30.55
2019-01-09T04:34:04.832Z,30.50
2019-01-09T04:36:34.636Z,30.55
2019-01-09T04:39:05.305Z,30.37
2019-01-09T04:41:34.838Z,30.31
2019-01-09T04:44:04.601Z,30.28
2019-01-09T04:46:34.216Z,30.30
2019-01-09T04:49:03.803Z,30.31
2019-01-09T04:51:33.407Z,30.24
2019-01-09T04:54:03.138Z,30.16
2019-01-09T04:56:32.835Z,30.10
2019-01-09T04:59:02.404Z,30.00
2019-01-09T05:01:32.162Z,30.05
2019-01-09T05:04:01.682Z,30.06
2019-01-09T05:06:31.365Z,30.01
2019-01-09T05:09:01.096Z,29.96
2019-01-09T05:11:30.795Z,29.98
2019-01-09T05:14:00.401Z,29.92
2019-01-09T05:16:30.008Z,29.95
2019-01-09T05:18:59.730Z,29.88
2019-01-09T05:21:29.289Z,30.00
2019-01-09T05:23:58.950Z,30.06
2019-01-09T05:26:28.658Z,30.03
2019-01-09T05:28:58.212Z,29.95
2019-01-09T05:31:27.836Z,29.89
2019-01-09T05:33:57.427Z,29.86
2019-01-09T05:36:27.097Z,29.74
2019-01-09T05:38:56.690Z,29.82
2019-01-09T05:41:26.296Z,29.70
2019-01-09T05:43:55.907Z,29.75
2019-01-09T05:46:25.523Z,29.78
2019-01-09T05:48:55.234Z,29.46
2019-01-09T05:51:24.944Z,29.73
2019-01-09T05:53:54.545Z,29.65
2019-01-09T05:56:24.161Z,29.75
2019-01-09T05:58:53.744Z,29.97
2019-01-09T06:01:23.238Z,30.27
2019-01-09T06:03:53.077Z,30.23
2019-01-09T06:06:22.756Z,30.03
2019-01-09T06:08:52.263Z,30.14
2019-01-09T06:11:21.918Z,30.13
2019-01-09T06:13:52.412Z,30.04
2019-01-09T06:16:21.914Z,29.91
2019-01-09T06:18:51.548Z,30.08
2019-01-09T06:21:21.136Z,30.39
2019-01-09T06:23:50.682Z,30.47
2019-01-09T06:26:20.278Z,30.19
2019-01-09T06:28:49.954Z,29.84
2019-01-09T06:31:19.598Z,29.87
2019-01-09T06:33:49.197Z,29.67
2019-01-09T06:36:18.909Z,29.80
2019-01-09T06:38:48.524Z,29.63
2019-01-09T06:41:18.128Z,29.48
2019-01-09T06:43:47.674Z,29.30
2019-01-09T06:46:17.273Z,28.99
2019-01-09T06:48:46.855Z,29.10
2019-01-09T06:51:16.490Z,28.92
2019-01-09T06:53:46.255Z,28.67
2019-01-09T06:56:16.127Z,28.62
2019-01-09T06:58:45.698Z,28.62
2019-01-09T07:01:15.404Z,28.54
2019-01-09T07:03:45.041Z,28.61
2019-01-09T07:06:14.628Z,28.67
2019-01-09T07:08:44.333Z,28.75
2019-01-09T07:11:14.019Z,28.11
2019-01-09T07:13:44.597Z,28.85
2019-01-09T07:16:14.290Z,28.92
2019-01-09T07:18:45.436Z,28.89
2019-01-09T07:21:15.040Z,28.90
2019-01-09T07:23:44.539Z,29.12
2019-01-09T07:26:13.949Z,29.14
2019-01-09T07:28:43.523Z,29.51
2019-01-09T07:31:13.125Z,29.08
2019-01-09T07:33:42.864Z,29.06
2019-01-09T07:36:12.475Z,29.11
2019-01-09T07:38:42.096Z,29.09
2019-01-09T07:41:11.620Z,29.04
2019-01-09T07:43:41.179Z,29.01
2019-01-09T07:46:10.844Z,29.59
2019-01-09T07:48:40.403Z,29.48
2019-01-09T07:51:09.948Z,29.21
2019-01-09T07:53:39.533Z,29.26
2019-01-09T07:56:09.136Z,29.35
2019-01-09T07:58:38.648Z,29.61
2019-01-09T08:01:08.279Z,29.37
2019-01-09T08:03:37.872Z,29.27
2019-01-09T08:06:07.623Z,29.30
2019-01-09T08:08:37.146Z,29.20
2019-01-09T08:11:06.658Z,29.17
2019-01-09T08:13:36.295Z,29.05
2019-01-09T08:16:05.998Z,29.03
2019-01-09T08:18:35.532Z,29.02
2019-01-09T08:21:05.807Z,28.95
2019-01-09T08:23:35.667Z,28.82
2019-01-09T08:26:05.244Z,28.79
2019-01-09T08:28:34.772Z,28.68
2019-01-09T08:31:04.282Z,28.59
2019-01-09T08:33:33.861Z,28.51
2019-01-09T08:36:03.511Z,28.50
2019-01-09T08:38:33.001Z,28.39
2019-01-09T08:41:02.623Z,28.38
2019-01-09T08:43:32.318Z,28.25
2019-01-09T08:46:01.938Z,28.22
2019-01-09T08:48:31.536Z,28.23
2019-01-09T08:51:01.159Z,28.20
2019-01-09T08:53:30.625Z,28.12
2019-01-09T08:56:00.159Z,28.05
2019-01-09T08:58:29.753Z,28.05
2019-01-09T09:00:59.267Z,28.03
2019-01-09T09:03:28.890Z,27.89
2019-01-09T09:05:58.449Z,27.87
2019-01-09T09:08:28.001Z,26.40
2019-01-09T09:10:57.610Z,27.56
2019-01-09T09:13:38.048Z,27.50
2019-01-09T09:16:11.567Z,27.81
2019-01-09T09:18:41.489Z,27.62
2019-01-09T09:21:11.058Z,27.64
2019-01-09T09:23:40.607Z,27.53
2019-01-09T09:26:10.095Z,27.56
2019-01-09T09:28:39.695Z,27.46
2019-01-09T09:31:09.321Z,27.53
2019-01-09T09:33:38.854Z,27.54
2019-01-09T09:36:08.453Z,27.59
2019-01-09T09:38:38.067Z,27.60
2019-01-09T09:41:07.751Z,27.68
2019-01-09T09:43:37.294Z,27.67
2019-01-09T09:46:06.968Z,27.70
2019-01-09T09:48:36.692Z,27.62
2019-01-09T09:51:06.394Z,27.71
2019-01-09T09:53:36.008Z,27.52
2019-01-09T09:56:05.621Z,27.60
2019-01-09T09:58:35.330Z,27.68
2019-01-09T10:01:04.971Z,27.75
2019-01-09T10:03:34.548Z,27.77
2019-01-09T10:06:04.091Z,27.87
2019-01-09T10:08:33.656Z,27.90
2019-01-09T10:11:03.260Z,28.23
2019-01-09T10:13:32.948Z,27.41
2019-01-09T10:16:02.576Z,28.37
2019-01-09T10:18:32.193Z,28.36
2019-01-09T10:21:01.664Z,28.16
2019-01-09T10:23:31.430Z,28.14
2019-01-09T10:26:01.005Z,28.06
2019-01-09T10:28:30.491Z,28.00
2019-01-09T10:31:00.031Z,28.02
2019-01-09T10:33:29.713Z,28.39
2019-01-09T10:35:59.311Z,28.30
2019-01-09T10:38:28.881Z,28.30
2019-01-09T10:40:58.471Z,28.24
2019-01-09T10:43:28.164Z,28.30
2019-01-09T10:45:57.779Z,28.33
2019-01-09T10:48:27.494Z,28.38
2019-01-09T10:50:57.093Z,28.53
2019-01-09T10:53:26.708Z,28.55
2019-01-09T10:55:56.308Z,28.54
2019-01-09T10:58:25.892Z,28.60
2019-01-09T11:00:56.023Z,28.65
2019-01-09T11:03:25.781Z,28.78
2019-01-09T11:05:55.366Z,28.85
2019-01-09T11:08:24.843Z,28.93
2019-01-09T11:10:54.458Z,29.20
2019-01-09T11:13:24.092Z,29.17
2019-01-09T11:15:53.839Z,29.31
2019-01-09T11:18:23.754Z,29.34
2019-01-09T11:20:53.275Z,29.13
2019-01-09T11:23:22.891Z,29.16
2019-01-09T11:25:52.432Z,29.08
2019-01-09T11:28:22.012Z,29.09
2019-01-09T11:30:51.648Z,29.28
2019-01-09T11:33:21.271Z,29.23
2019-01-09T11:35:50.826Z,29.29
2019-01-09T11:38:20.381Z,29.35
2019-01-09T11:40:49.981Z,29.44
2019-01-09T11:43:19.575Z,29.53
2019-01-09T11:45:49.096Z,29.53
2019-01-09T11:48:18.913Z,29.61
2019-01-09T11:50:48.693Z,29.71
2019-01-09T11:53:18.248Z,29.91
2019-01-09T11:55:47.737Z,29.93
2019-01-09T11:58:17.647Z,29.97
2019-01-09T12:00:47.362Z,26.86
2019-01-09T12:03:16.875Z,29.58
2019-01-09T12:05:46.424Z,29.52
2019-01-09T12:08:16.018Z,29.63
2019-01-09T12:10:45.631Z,29.58
2019-01-09T12:13:15.103Z,29.56
2019-01-09T12:15:44.562Z,29.45
2019-01-09T12:18:14.113Z,29.46
2019-01-09T12:20:43.717Z,29.35
2019-01-09T12:23:13.311Z,29.28
2019-01-09T12:25:42.807Z,29.30
2019-01-09T12:28:12.540Z,29.19
2019-01-09T12:30:42.235Z,29.17
2019-01-09T12:33:11.758Z,29.17
2019-01-09T12:35:41.352Z,29.21
2019-01-09T12:38:10.977Z,29.13
2019-01-09T12:40:40.599Z,29.04
2019-01-09T12:43:10.090Z,25.16
2019-01-09T12:45:39.588Z,28.30
2019-01-09T12:48:09.209Z,28.41
2019-01-09T12:50:38.814Z,28.39
2019-01-09T12:53:08.405Z,28.61
2019-01-09T12:55:37.949Z,28.63
2019-01-09T12:58:07.544Z,28.62
2019-01-09T13:00:37.026Z,28.81
2019-01-09T13:03:06.660Z,28.72
2019-01-09T13:05:36.409Z,28.79
2019-01-09T13:08:05.940Z,28.87
2019-01-09T13:10:35.513Z,28.81
2019-01-09T13:13:05.097Z,28.94
2019-01-09T13:15:34.941Z,29.17
2019-01-09T13:18:05.405Z,29.01
2019-01-09T13:20:35.063Z,29.07
2019-01-09T13:23:04.742Z,29.06
2019-01-09T13:25:34.466Z,28.87
2019-01-09T13:28:04.178Z,28.78
2019-01-09T13:30:33.756Z,28.95
2019-01-09T13:33:03.493Z,28.91
2019-01-09T13:35:33.230Z,29.12
2019-01-09T13:38:02.817Z,29.08
2019-01-09T13:40:34.294Z,29.40
2019-01-09T13:43:03.631Z,29.54
2019-01-09T13:45:33.284Z,29.73
2019-01-09T13:48:02.885Z,29.90
2019-01-09T13:50:32.649Z,29.98
2019-01-09T13:53:02.242Z,30.01
2019-01-09T13:55:32.580Z,30.01
2019-01-09T13:58:02.120Z,30.09
2019-01-09T14:00:31.718Z,30.10
2019-01-09T14:03:01.676Z,30.20
2019-01-09T14:05:31.604Z,30.32
2019-01-09T14:08:01.224Z,30.63
2019-01-09T14:10:30.970Z,30.78
2019-01-09T14:13:00.556Z,30.99
2019-01-09T14:15:30.153Z,31.03
2019-01-09T14:17:59.745Z,31.11
2019-01-09T14:20:29.493Z,31.10
2019-01-09T14:22:59.162Z,26.70
2019-01-09T14:25:28.880Z,29.88
2019-01-09T14:27:58.621Z,29.83
2019-01-09T14:30:29.421Z,29.73
2019-01-09T14:32:59.122Z,29.70
2019-01-09T14:35:28.852Z,29.60
2019-01-09T14:37:58.648Z,29.48
2019-01-09T14:40:28.392Z,29.39
2019-01-09T14:42:58.073Z,29.38
2019-01-09T14:45:27.882Z,29.25
2019-01-09T14:47:57.596Z,29.27
2019-01-09T14:50:27.321Z,29.26
2019-01-09T14:52:56.949Z,29.29
2019-01-09T14:55:26.642Z,29.21
2019-01-09T14:57:56.252Z,29.20
2019-01-09T15:00:27.573Z,29.12
2019-01-09T15:02:57.224Z,29.12
2019-01-09T15:05:26.918Z,29.07
2019-01-09T15:07:56.614Z,29.08
2019-01-09T15:10:28.359Z,29.07
2019-01-09T15:12:58.115Z,29.02
2019-01-09T15:15:27.797Z,29.03
2019-01-09T15:17:57.562Z,28.88
2019-01-09T15:20:27.342Z,28.91
2019-01-09T15:22:56.958Z,28.86
2019-01-09T15:25:26.644Z,28.85
2019-01-09T15:27:56.343Z,28.86
2019-01-09T15:30:30.712Z,28.84
2019-01-09T15:33:00.384Z,28.79
2019-01-09T15:35:30.028Z,28.69
2019-01-09T15:37:59.798Z,28.74
2019-01-09T15:40:30.742Z,28.68
2019-01-09T15:43:00.369Z,28.76
2019-01-09T15:45:30.093Z,28.77
2019-01-09T15:47:59.762Z,28.78
2019-01-09T15:50:29.722Z,28.65
2019-01-09T15:52:59.478Z,28.58
2019-01-09T15:55:29.080Z,28.62
2019-01-09T15:57:58.716Z,28.59
2019-01-09T16:00:31.040Z,28.56
2019-01-09T16:03:00.853Z,28.43
2019-01-09T16:05:30.502Z,28.48
2019-01-09T16:08:00.142Z,28.54
2019-01-09T16:10:29.831Z,26.30
2019-01-09T16:12:59.540Z,28.11
2019-01-09T16:15:29.163Z,28.16
2019-01-09T16:17:58.694Z,28.00
2019-01-09T16:20:28.308Z,28.25
2019-01-09T16:22:58.096Z,26.60
2019-01-09T16:25:27.585Z,26.35
2019-01-09T16:27:57.300Z,26.98
2019-01-09T16:30:46.886Z,26.94
2019-01-09T16:33:16.497Z,27.00
2019-01-09T16:35:46.184Z,26.98
2019-01-09T16:38:15.919Z,27.08
2019-01-09T16:40:45.626Z,27.47
2019-01-09T16:43:15.229Z,27.53
2019-01-09T16:45:44.930Z,27.50
2019-01-09T16:48:14.658Z,27.65
2019-01-09T16:50:44.267Z,27.74
2019-01-09T16:53:14.186Z,27.80
2019-01-09T16:55:43.910Z,27.85
2019-01-09T16:58:13.596Z,28.24
2019-01-09T17:00:43.238Z,28.48
2019-01-09T17:03:12.892Z,28.48
2019-01-09T17:05:42.625Z,28.47
2019-01-09T17:08:12.263Z,28.48
2019-01-09T17:10:43.041Z,28.44
2019-01-09T17:13:12.795Z,28.43
2019-01-09T17:15:42.496Z,28.46
2019-01-09T17:18:12.269Z,28.55
2019-01-09T17:20:41.909Z,28.62
2019-01-09T17:23:11.652Z,28.61
2019-01-09T17:25:41.325Z,28.62
2019-01-09T17:28:11.190Z,28.88
2019-01-09T17:30:40.958Z,28.74
2019-01-09T17:33:10.559Z,29.50
2019-01-09T17:35:40.278Z,29.97
2019-01-09T17:38:10.036Z,30.17
2019-01-09T17:40:41.164Z,30.44
2019-01-09T17:43:11.046Z,30.70
2019-01-09T17:45:40.754Z,31.00
2019-01-09T17:48:10.469Z,31.54
2019-01-09T17:50:40.483Z,31.74
2019-01-09T17:53:10.109Z,31.82
2019-01-09T17:55:39.803Z,32.04
2019-01-09T17:58:09.318Z,32.46
2019-01-09T18:00:41.379Z,32.59
2019-01-09T18:03:11.265Z,32.87
2019-01-09T18:05:41.753Z,33.37
2019-01-09T18:08:14.582Z,33.46
2019-01-09T18:10:49.947Z,34.41
2019-01-09T18:13:15.816Z,33.57
2019-01-09T18:15:45.381Z,33.93
2019-01-09T18:18:15.116Z,33.84
2019-01-09T18:20:44.688Z,33.86
2019-01-09T18:23:14.619Z,34.03
2019-01-09T18:25:44.310Z,34.20
2019-01-09T18:28:13.929Z,34.52
2019-01-09T18:31:22.752Z,34.44
2019-01-09T18:34:12.875Z,35.86
2019-01-09T18:37:38.767Z,36.89
2019-01-09T18:40:58.737Z,36.47
2019-01-09T18:43:51.380Z,36.08
2019-01-09T18:47:10.658Z,35.68
2019-01-09T18:50:32.938Z,35.78
2019-01-09T18:53:27.538Z,35.50
2019-01-09T18:55:57.263Z,35.37
2019-01-09T18:58:26.896Z,35.09
2019-01-09T19:00:56.498Z,35.02
2019-01-09T19:03:26.163Z,34.63
2019-01-09T19:05:56.118Z,34.41
2019-01-09T19:08:25.969Z,34.34
2019-01-09T19:10:55.559Z,34.24
2019-01-09T19:13:25.312Z,34.02
2019-01-09T19:15:55.079Z,33.87
2019-01-09T19:18:25.041Z,33.68
2019-01-09T19:20:54.717Z,33.54
2019-01-09T19:23:24.402Z,33.44
2019-01-09T19:25:53.997Z,33.42
2019-01-09T19:28:23.696Z,33.32
2019-01-09T19:30:53.325Z,33.18
2019-01-09T19:33:22.923Z,33.03
2019-01-09T19:35:52.619Z,32.99
2019-01-09T19:38:22.311Z,33.02
2019-01-09T19:40:52.057Z,33.17
2019-01-09T19:43:21.744Z,33.09
2019-01-09T19:45:51.389Z,33.01
2019-01-09T19:48:21.057Z,32.95
2019-01-09T19:50:51.134Z,32.82
2019-01-09T19:53:20.795Z,32.67
2019-01-09T19:55:50.452Z,32.62
2019-01-09T19:58:20.213Z,32.59
2019-01-09T20:00:49.749Z,32.48
2019-01-09T20:03:19.433Z,32.48
2019-01-09T20:05:49.146Z,32.45
2019-01-09T20:08:18.916Z,32.39
2019-01-09T20:10:48.720Z,32.29
2019-01-09T20:13:18.223Z,32.24
2019-01-09T20:15:47.894Z,32.25
2019-01-09T20:18:17.515Z,32.22
2019-01-09T20:20:47.309Z,32.20
2019-01-09T20:23:16.943Z,32.08
2019-01-09T20:25:46.647Z,32.03
2019-01-09T20:28:16.365Z,32.00
2019-01-09T20:30:46.202Z,31.99
2019-01-09T20:33:15.898Z,31.92
2019-01-09T20:35:45.619Z,31.85
2019-01-09T20:38:15.220Z,31.90
2019-01-09T20:40:44.862Z,31.97
2019-01-09T20:43:14.422Z,32.00
2019-01-09T20:45:44.183Z,31.92
2019-01-09T20:48:14.052Z,31.85
2019-01-09T20:50:43.834Z,31.80
2019-01-09T20:53:13.560Z,31.79
2019-01-09T20:55:43.410Z,31.76
2019-01-09T20:58:13.207Z,31.84
2019-01-09T21:00:42.941Z,31.94
2019-01-09T21:03:13.579Z,31.90
2019-01-09T21:05:45.526Z,31.94
2019-01-09T21:08:15.185Z,31.98
2019-01-09T21:10:44.796Z,32.14
2019-01-09T21:13:14.769Z,32.03
2019-01-09T21:15:44.583Z,32.00
2019-01-09T21:18:14.239Z,32.33
2019-01-09T21:20:43.880Z,32.09
2019-01-09T21:23:13.697Z,32.10
2019-01-09T21:25:43.297Z,31.90
2019-01-09T21:28:13.059Z,31.87
2019-01-09T21:30:42.618Z,31.86
2019-01-09T21:33:12.671Z,31.86
2019-01-09T21:35:42.359Z,31.79
2019-01-09T21:38:12.035Z,31.72
2019-01-09T21:40:41.659Z,31.67
2019-01-09T21:43:11.358Z,31.64
2019-01-09T21:45:41.060Z,31.53
2019-01-09T21:48:10.777Z,31.56
2019-01-09T21:50:40.481Z,31.48
2019-01-09T21:53:10.239Z,31.39
2019-01-09T21:55:40.006Z,31.37
2019-01-09T21:58:09.638Z,31.36
2019-01-09T22:00:39.394Z,31.34
2019-01-09T22:03:09.194Z,31.25
2019-01-09T22:05:38.956Z,31.26
2019-01-09T22:08:08.575Z,31.28
2019-01-09T22:10:38.513Z,31.15
2019-01-09T22:13:08.854Z,31.08
2019-01-09T22:15:38.507Z,31.16
2019-01-09T22:18:08.225Z,31.14
2019-01-09T22:20:37.858Z,31.04
2019-01-09T22:23:07.652Z,31.01
2019-01-09T22:25:37.288Z,31.02
2019-01-09T22:28:06.964Z,31.08
2019-01-09T22:30:36.708Z,30.93
2019-01-09T22:33:06.483Z,30.92
2019-01-09T22:35:41.364Z,30.95
2019-01-09T22:38:07.859Z,30.87
2019-01-09T22:40:37.595Z,30.94
2019-01-09T22:43:07.380Z,30.93
2019-01-09T22:45:36.997Z,30.94
2019-01-09T22:48:06.701Z,30.97
2019-01-09T22:50:36.332Z,30.85
2019-01-09T22:53:06.051Z,30.81
2019-01-09T22:55:35.647Z,30.96
2019-01-09T22:58:05.344Z,31.04
2019-01-09T23:01:08.596Z,31.11
2019-01-09T23:03:58.201Z,31.19
2019-01-09T23:06:37.378Z,31.09
2019-01-09T23:09:39.352Z,31.42
2019-01-09T23:12:08.911Z,31.63
2019-01-09T23:14:38.316Z,31.33
2019-01-09T23:17:07.821Z,31.56
2019-01-09T23:19:37.336Z,31.68
2019-01-09T23:22:06.805Z,31.53
2019-01-09T23:24:36.471Z,31.46
2019-01-09T23:27:06.043Z,31.43
2019-01-09T23:29:35.525Z,31.44
2019-01-09T23:32:05.057Z,31.39
2019-01-09T23:34:34.570Z,31.16
2019-01-09T23:37:04.030Z,31.10
2019-01-09T23:39:33.588Z,30.99
2019-01-09T23:42:03.088Z,30.91
2019-01-09T23:44:32.687Z,30.94
2019-01-09T23:47:02.196Z,30.93
2019-01-09T23:49:31.703Z,30.92
2019-01-09T23:52:01.276Z,30.94
2019-01-09T23:54:30.817Z,30.76
2019-01-09T23:57:00.341Z,30.85
2019-01-09T23:59:29.889Z,30.78
